createdAt,value
2023-03-04T00:00:13.445Z,3.74
2023-03-04T00:00:46.529Z,3.71
2023-03-04T00:01:18.312Z,3.70
2023-03-04T00:01:50.731Z,3.66
2023-03-04T00:02:22.811Z,3.67
2023-03-04T00:02:54.860Z,3.71
2023-03-04T00:03:26.775Z,3.73
2023-03-04T00:03:58.692Z,3.75
2023-03-04T00:04:30.462Z,3.76
2023-03-04T00:05:03.824Z,3.79
2023-03-04T00:05:35.601Z,3.80
2023-03-04T00:06:07.645Z,3.79
2023-03-04T00:06:39.408Z,3.78
2023-03-04T00:07:11.334Z,3.79
2023-03-04T00:07:43.083Z,3.78
2023-03-04T00:08:14.954Z,3.75
2023-03-04T00:08:46.723Z,3.72
2023-03-04T00:09:18.526Z,3.72
2023-03-04T00:09:50.284Z,3.73
2023-03-04T00:10:22.041Z,3.71
2023-03-04T00:10:54.146Z,3.71
2023-03-04T00:11:25.963Z,3.71
2023-03-04T00:11:57.673Z,3.70
2023-03-04T00:12:29.423Z,3.69
2023-03-04T00:13:01.164Z,3.63
2023-03-04T00:13:33.232Z,3.55
2023-03-04T00:14:04.972Z,3.55
2023-03-04T00:14:36.767Z,3.56
2023-03-04T00:15:09.142Z,3.57
2023-03-04T00:15:40.934Z,3.59
2023-03-04T00:16:12.784Z,3.62
2023-03-04T00:16:44.614Z,3.62
2023-03-04T00:17:16.478Z,3.60
2023-03-04T00:17:48.221Z,3.60
2023-03-04T00:18:21.282Z,3.52
2023-03-04T00:18:56.908Z,3.50
2023-03-04T00:19:28.665Z,3.50
2023-03-04T00:20:00.411Z,3.44
2023-03-04T00:20:32.165Z,3.41
2023-03-04T00:21:04.106Z,3.36
2023-03-04T00:21:35.912Z,3.34
2023-03-04T00:22:07.679Z,3.32
2023-03-04T00:22:39.460Z,3.33
2023-03-04T00:23:11.270Z,3.29
2023-03-04T00:23:43.792Z,3.26
2023-03-04T00:24:15.559Z,3.27
2023-03-04T00:24:47.364Z,3.32
2023-03-04T00:25:19.210Z,3.37
2023-03-04T00:25:51.147Z,3.38
2023-03-04T00:26:23.104Z,3.37
2023-03-04T00:26:54.885Z,3.32
2023-03-04T00:27:26.646Z,3.29
2023-03-04T00:27:58.691Z,3.25
2023-03-04T00:28:30.461Z,3.23
2023-03-04T00:29:02.455Z,3.22
2023-03-04T00:29:34.407Z,3.23
2023-03-04T00:30:07.483Z,3.25
2023-03-04T00:30:39.295Z,3.28
2023-03-04T00:31:11.719Z,3.31
2023-03-04T00:31:43.553Z,3.32
2023-03-04T00:32:16.391Z,3.34
2023-03-04T00:32:48.155Z,3.32
2023-03-04T00:33:19.851Z,3.29
2023-03-04T00:33:51.625Z,3.30
2023-03-04T00:34:23.441Z,3.33
2023-03-04T00:34:55.155Z,3.34
2023-03-04T00:35:27.332Z,3.32
2023-03-04T00:35:59.159Z,3.31
2023-03-04T00:36:30.986Z,3.31
2023-03-04T00:37:03.782Z,3.31
2023-03-04T00:37:35.513Z,3.23
2023-03-04T00:38:07.463Z,3.26
2023-03-04T00:38:39.831Z,3.26
2023-03-04T00:39:12.513Z,3.21
2023-03-04T00:39:44.294Z,3.16
2023-03-04T00:40:16.148Z,3.14
2023-03-04T00:40:47.965Z,3.11
2023-03-04T00:41:19.940Z,3.10
2023-03-04T00:41:51.690Z,3.08
2023-03-04T00:42:23.488Z,3.07
2023-03-04T00:42:55.262Z,3.08
2023-03-04T00:43:27.110Z,3.10
2023-03-04T00:43:58.831Z,3.07
2023-03-04T00:44:30.714Z,3.05
2023-03-04T00:45:02.467Z,2.98
2023-03-04T00:45:34.354Z,3.04
2023-03-04T00:46:07.280Z,3.05
2023-03-04T00:46:39.072Z,3.02
2023-03-04T00:47:10.920Z,3.01
2023-03-04T00:47:42.749Z,3.00
2023-03-04T00:48:16.382Z,3.03
2023-03-04T00:48:48.181Z,3.03
2023-03-04T00:49:19.959Z,2.99
2023-03-04T00:49:51.753Z,3.01
2023-03-04T00:50:23.556Z,3.02
2023-03-04T00:50:55.392Z,3.05
2023-03-04T00:51:27.317Z,3.07
2023-03-04T00:51:59.026Z,3.09
2023-03-04T00:52:30.784Z,3.09
2023-03-04T00:53:02.584Z,3.07
2023-03-04T00:53:34.420Z,3.03
2023-03-04T00:54:06.208Z,3.01
2023-03-04T00:54:37.964Z,3.01
2023-03-04T00:55:10.103Z,2.99
2023-03-04T00:55:41.856Z,3.04
2023-03-04T00:56:13.757Z,3.05
2023-03-04T00:56:45.544Z,3.06
2023-03-04T00:57:17.478Z,2.98
2023-03-04T00:57:49.211Z,2.95
2023-03-04T00:58:21.270Z,2.98
2023-03-04T00:58:53.014Z,3.00
2023-03-04T00:59:24.812Z,2.96
2023-03-04T00:59:56.870Z,2.94
2023-03-04T01:00:28.761Z,2.95
2023-03-04T01:01:00.555Z,2.96
2023-03-04T01:01:32.392Z,2.91
2023-03-04T01:02:04.232Z,2.93
2023-03-04T01:02:36.022Z,2.92
2023-03-04T01:03:07.820Z,2.85
2023-03-04T01:03:41.558Z,2.82
2023-03-04T01:04:13.432Z,2.88
2023-03-04T01:04:45.182Z,2.90
2023-03-04T01:05:17.367Z,2.83
2023-03-04T01:05:49.167Z,2.79
2023-03-04T01:06:21.013Z,2.82
2023-03-04T01:06:52.850Z,2.83
2023-03-04T01:07:24.633Z,2.85
2023-03-04T01:07:56.402Z,2.85
2023-03-04T01:08:29.005Z,2.88
2023-03-04T01:09:00.816Z,2.87
2023-03-04T01:09:32.562Z,2.85
2023-03-04T01:10:07.173Z,2.88
2023-03-04T01:10:38.948Z,2.87
2023-03-04T01:11:11.053Z,2.83
2023-03-04T01:11:42.968Z,2.78
2023-03-04T01:12:14.721Z,2.80
2023-03-04T01:12:46.450Z,2.80
2023-03-04T01:13:18.994Z,2.83
2023-03-04T01:13:50.840Z,2.82
2023-03-04T01:14:22.727Z,2.78
2023-03-04T01:14:54.489Z,2.79
2023-03-04T01:15:26.294Z,2.78
2023-03-04T01:15:58.021Z,2.76
2023-03-04T01:16:29.792Z,2.77
2023-03-04T01:17:01.675Z,2.76
2023-03-04T01:17:33.538Z,2.78
2023-03-04T01:18:05.638Z,2.79
2023-03-04T01:18:37.633Z,2.79
2023-03-04T01:19:09.389Z,2.79
2023-03-04T01:19:41.216Z,2.79
2023-03-04T01:20:14.060Z,2.82
2023-03-04T01:20:45.939Z,2.78
2023-03-04T01:21:17.754Z,2.81
2023-03-04T01:21:49.622Z,2.84
2023-03-04T01:22:21.382Z,2.77
2023-03-04T01:22:53.207Z,2.76
2023-03-04T01:23:25.039Z,2.75
2023-03-04T01:23:57.025Z,2.73
2023-03-04T01:24:30.189Z,2.74
2023-03-04T01:25:02.082Z,2.72
2023-03-04T01:25:33.847Z,2.77
2023-03-04T01:26:05.564Z,2.74
2023-03-04T01:26:37.364Z,2.70
2023-03-04T01:27:09.268Z,2.68
2023-03-04T01:27:41.152Z,2.75
2023-03-04T01:28:13.509Z,2.76
2023-03-04T01:28:45.223Z,2.68
2023-03-04T01:29:17.043Z,2.70
2023-03-04T01:29:48.768Z,2.71
2023-03-04T01:30:20.691Z,2.68
2023-03-04T01:30:52.532Z,2.71
2023-03-04T01:31:24.384Z,2.71
2023-03-04T01:31:56.301Z,2.75
2023-03-04T01:32:28.159Z,2.72
2023-03-04T01:33:00.068Z,2.69
2023-03-04T01:33:31.982Z,2.66
2023-03-04T01:34:03.965Z,2.65
2023-03-04T01:34:36.302Z,2.72
2023-03-04T01:35:08.585Z,2.72
2023-03-04T01:35:40.392Z,2.69
2023-03-04T01:36:12.241Z,2.70
2023-03-04T01:36:45.274Z,2.77
2023-03-04T01:37:17.064Z,2.76
2023-03-04T01:37:48.802Z,2.80
2023-03-04T01:38:21.098Z,2.82
2023-03-04T01:38:53.084Z,2.83
2023-03-04T01:39:24.850Z,2.77
2023-03-04T01:39:56.602Z,2.72
2023-03-04T01:40:28.513Z,2.77
2023-03-04T01:41:00.526Z,2.77
2023-03-04T01:41:32.886Z,2.78
2023-03-04T01:42:04.699Z,2.81
2023-03-04T01:42:37.087Z,2.75
2023-03-04T01:43:16.181Z,2.75
2023-03-04T01:43:48.066Z,2.75
2023-03-04T01:44:19.992Z,2.79
2023-03-04T01:44:52.695Z,2.79
2023-03-04T01:45:24.805Z,2.74
2023-03-04T01:45:58.918Z,2.72
2023-03-04T01:46:32.147Z,2.70
2023-03-04T01:47:04.095Z,2.69
2023-03-04T01:47:36.351Z,2.68
2023-03-04T01:48:13.378Z,2.65
2023-03-04T01:48:45.242Z,2.65
2023-03-04T01:49:18.029Z,2.62
2023-03-04T01:49:54.944Z,2.61
2023-03-04T01:50:35.694Z,2.61
2023-03-04T01:51:14.738Z,2.61
2023-03-04T01:51:55.801Z,2.60
2023-03-04T01:52:28.251Z,2.59
2023-03-04T01:53:01.021Z,2.59
2023-03-04T01:53:33.845Z,2.56
2023-03-04T01:54:05.599Z,2.58
2023-03-04T01:54:38.286Z,2.57
2023-03-04T01:55:21.271Z,2.57
2023-03-04T01:55:54.836Z,2.53
2023-03-04T01:56:38.089Z,2.52
2023-03-04T01:57:18.001Z,2.52
2023-03-04T01:57:52.570Z,2.53
2023-03-04T01:58:28.436Z,2.50
2023-03-04T01:59:16.567Z,2.49
2023-03-04T02:00:26.509Z,2.49
2023-03-04T02:00:58.988Z,2.49
2023-03-04T02:01:30.714Z,2.48
2023-03-04T02:02:02.576Z,2.46
2023-03-04T02:02:34.319Z,2.46
2023-03-04T02:03:11.449Z,2.46
2023-03-04T02:03:43.230Z,2.43
2023-03-04T02:04:18.133Z,2.40
2023-03-04T02:04:49.960Z,2.41
2023-03-04T02:05:22.695Z,2.34
2023-03-04T02:05:56.307Z,2.29
2023-03-04T02:06:28.296Z,2.31
2023-03-04T02:07:02.334Z,2.29
2023-03-04T02:07:34.175Z,2.29
2023-03-04T02:08:07.137Z,2.26
2023-03-04T02:08:38.929Z,2.23
2023-03-04T02:09:11.501Z,2.23
2023-03-04T02:09:43.285Z,2.24
2023-03-04T02:10:15.185Z,2.23
2023-03-04T02:10:48.265Z,2.20
2023-03-04T02:11:20.035Z,2.15
2023-03-04T02:11:53.015Z,2.20
2023-03-04T02:12:24.810Z,2.15
2023-03-04T02:12:57.359Z,2.11
2023-03-04T02:13:29.152Z,2.07
2023-03-04T02:14:01.118Z,2.08
2023-03-04T02:14:33.001Z,2.10
2023-03-04T02:15:06.002Z,2.09
2023-03-04T02:15:38.132Z,2.06
2023-03-04T02:16:11.213Z,2.06
2023-03-04T02:16:43.361Z,2.06
2023-03-04T02:17:15.185Z,2.02
2023-03-04T02:17:47.507Z,2.01
2023-03-04T02:18:23.464Z,1.97
2023-03-04T02:18:56.057Z,1.99
2023-03-04T02:19:51.469Z,1.93
2023-03-04T02:20:54.800Z,1.97
2023-03-04T02:21:30.273Z,1.98
2023-03-04T02:22:02.191Z,1.97
2023-03-04T02:22:43.441Z,1.94
2023-03-04T02:23:42.464Z,1.93
2023-03-04T02:24:22.687Z,1.95
2023-03-04T02:25:04.095Z,1.90
2023-03-04T02:26:13.983Z,1.90
2023-03-04T02:26:47.093Z,1.86
2023-03-04T02:27:21.629Z,1.85
2023-03-04T02:27:53.797Z,1.86
2023-03-04T02:28:25.604Z,1.86
2023-03-04T02:28:59.914Z,1.84
2023-03-04T02:29:31.871Z,1.80
2023-03-04T02:30:03.948Z,1.77
2023-03-04T02:30:35.963Z,1.79
2023-03-04T02:31:11.640Z,1.80
2023-03-04T02:31:46.191Z,1.78
2023-03-04T02:32:18.103Z,1.77
2023-03-04T02:32:49.863Z,1.76
2023-03-04T02:33:21.745Z,1.76
2023-03-04T02:33:56.354Z,1.75
2023-03-04T02:34:33.280Z,1.72
2023-03-04T02:35:05.723Z,1.71
2023-03-04T02:35:37.548Z,1.74
2023-03-04T02:36:10.453Z,1.67
2023-03-04T02:36:44.732Z,1.59
2023-03-04T02:37:18.742Z,1.68
2023-03-04T02:37:50.565Z,1.73
2023-03-04T02:38:22.387Z,1.66
2023-03-04T02:38:55.785Z,1.68
2023-03-04T02:39:32.584Z,1.72
2023-03-04T02:40:06.504Z,1.75
2023-03-04T02:40:42.561Z,1.75
2023-03-04T02:41:20.392Z,1.74
2023-03-04T02:41:54.448Z,1.76
2023-03-04T02:42:26.218Z,1.77
2023-03-04T02:43:01.350Z,1.75
2023-03-04T02:43:33.142Z,1.69
2023-03-04T02:44:17.691Z,1.63
2023-03-04T02:44:50.604Z,1.69
2023-03-04T02:45:57.989Z,1.68
2023-03-04T02:46:30.293Z,1.71
2023-03-04T02:47:04.048Z,1.75
2023-03-04T02:47:36.088Z,1.75
2023-03-04T02:48:09.523Z,1.72
2023-03-04T02:48:41.824Z,1.72
2023-03-04T02:49:14.584Z,1.80
2023-03-04T02:49:47.539Z,1.86
2023-03-04T02:50:19.831Z,1.84
2023-03-04T02:50:53.751Z,1.79
2023-03-04T02:51:25.596Z,1.84
2023-03-04T02:52:14.440Z,1.77
2023-03-04T02:52:46.505Z,1.85
2023-03-04T02:53:20.804Z,1.84
2023-03-04T02:53:52.906Z,1.82
2023-03-04T02:54:25.083Z,1.78
2023-03-04T02:54:56.858Z,1.77
2023-03-04T02:55:29.277Z,1.76
2023-03-04T02:56:01.222Z,1.75
2023-03-04T02:56:33.345Z,1.75
2023-03-04T02:57:09.498Z,1.77
2023-03-04T02:57:41.293Z,1.78
2023-03-04T02:58:14.362Z,1.76
2023-03-04T02:58:46.140Z,1.82
2023-03-04T02:59:19.393Z,1.87
2023-03-04T02:59:51.217Z,1.88
2023-03-04T03:00:23.169Z,1.86
2023-03-04T03:00:55.082Z,1.84
2023-03-04T03:01:29.239Z,1.79
2023-03-04T03:02:01.437Z,1.78
2023-03-04T03:02:33.278Z,1.77
2023-03-04T03:03:05.954Z,1.78
2023-03-04T03:03:37.789Z,1.88
2023-03-04T03:04:10.211Z,1.93
2023-03-04T03:05:14.877Z,1.98
2023-03-04T03:05:46.672Z,2.02
2023-03-04T03:06:18.456Z,2.06
2023-03-04T03:06:50.431Z,2.07
2023-03-04T03:07:22.290Z,2.04
2023-03-04T03:07:54.341Z,2.01
2023-03-04T03:08:26.115Z,2.04
2023-03-04T03:08:57.884Z,1.98
2023-03-04T03:09:29.657Z,2.03
2023-03-04T03:10:01.880Z,1.97
2023-03-04T03:10:33.916Z,2.01
2023-03-04T03:11:05.647Z,1.98
2023-03-04T03:11:37.892Z,2.02
2023-03-04T03:12:09.704Z,2.01
2023-03-04T03:12:41.480Z,1.93
2023-03-04T03:13:13.306Z,1.88
2023-03-04T03:13:45.073Z,1.84
2023-03-04T03:14:17.192Z,1.79
2023-03-04T03:14:48.925Z,1.75
2023-03-04T03:15:20.962Z,1.72
2023-03-04T03:15:52.926Z,1.71
2023-03-04T03:16:24.962Z,1.67
2023-03-04T03:16:56.826Z,1.62
2023-03-04T03:17:28.716Z,1.56
2023-03-04T03:18:00.587Z,1.55
2023-03-04T03:18:32.417Z,1.58
2023-03-04T03:19:04.210Z,1.53
2023-03-04T03:19:36.285Z,1.44
2023-03-04T03:20:09.869Z,1.42
2023-03-04T03:20:42.134Z,1.41
2023-03-04T03:21:14.066Z,1.40
2023-03-04T03:21:45.850Z,1.41
2023-03-04T03:22:49.974Z,1.40
2023-03-04T03:23:21.845Z,1.43
2023-03-04T03:23:53.646Z,1.33
2023-03-04T03:24:58.992Z,1.28
2023-03-04T03:25:33.894Z,1.25
2023-03-04T03:26:06.168Z,1.28
2023-03-04T03:26:40.012Z,1.35
2023-03-04T03:27:11.883Z,1.37
2023-03-04T03:28:19.848Z,1.40
2023-03-04T03:28:51.650Z,1.39
2023-03-04T03:29:59.579Z,1.49
2023-03-04T03:30:34.847Z,1.47
2023-03-04T03:31:06.754Z,1.45
2023-03-04T03:31:38.585Z,1.44
2023-03-04T03:32:42.812Z,1.41
2023-03-04T03:33:14.513Z,1.49
2023-03-04T03:34:19.799Z,1.48
2023-03-04T03:34:51.973Z,1.45
2023-03-04T03:35:26.971Z,1.42
2023-03-04T03:36:01.999Z,1.41
2023-03-04T03:36:33.935Z,1.41
2023-03-04T03:37:08.869Z,1.42
2023-03-04T03:37:40.749Z,1.38
2023-03-04T03:38:12.622Z,1.32
2023-03-04T03:39:20.197Z,1.42
2023-03-04T03:39:53.563Z,1.40
2023-03-04T03:40:28.885Z,1.34
2023-03-04T03:41:04.078Z,1.33
2023-03-04T03:41:35.947Z,1.32
2023-03-04T03:42:07.737Z,1.32
2023-03-04T03:43:14.847Z,1.42
2023-03-04T03:43:49.677Z,1.39
2023-03-04T03:44:24.857Z,1.35
2023-03-04T03:46:00.567Z,1.37
2023-03-04T03:47:04.689Z,1.48
2023-03-04T03:47:36.992Z,1.50
2023-03-04T03:48:11.856Z,1.50
2023-03-04T03:48:44.871Z,1.44
2023-03-04T03:49:17.311Z,1.37
2023-03-04T03:49:49.234Z,1.48
2023-03-04T03:50:22.154Z,1.53
2023-03-04T03:50:54.835Z,1.55
2023-03-04T03:51:28.821Z,1.50
2023-03-04T03:52:25.535Z,1.27
2023-03-04T03:52:57.594Z,1.31
2023-03-04T03:54:02.886Z,1.22
2023-03-04T03:54:37.800Z,1.19
2023-03-04T03:55:42.158Z,1.17
2023-03-04T03:56:17.895Z,1.15
2023-03-04T03:56:56.738Z,1.17
2023-03-04T03:57:29.530Z,1.18
2023-03-04T03:58:01.429Z,1.17
2023-03-04T03:58:34.616Z,1.13
2023-03-04T03:59:06.385Z,1.13
2023-03-04T03:59:38.218Z,1.12
2023-03-04T04:00:10.649Z,1.13
2023-03-04T04:01:14.963Z,1.11
2023-03-04T04:02:23.139Z,1.10
2023-03-04T04:02:58.397Z,1.09
2023-03-04T04:03:55.398Z,1.12
2023-03-04T04:05:00.950Z,1.17
2023-03-04T04:05:32.733Z,1.13
2023-03-04T04:06:04.605Z,1.14
2023-03-04T04:07:10.614Z,1.17
2023-03-04T04:07:45.945Z,1.11
2023-03-04T04:08:18.330Z,1.17
2023-03-04T04:09:38.586Z,1.15
2023-03-04T04:10:12.143Z,1.17
2023-03-04T04:11:48.063Z,1.18
2023-03-04T04:12:22.855Z,1.18
2023-03-04T04:13:22.455Z,1.19
2023-03-04T04:13:53.991Z,1.19
2023-03-04T04:14:25.780Z,1.21
2023-03-04T04:14:57.597Z,1.27
2023-03-04T04:16:02.600Z,1.25
2023-03-04T04:16:34.480Z,1.23
2023-03-04T04:17:39.067Z,1.08
2023-03-04T04:18:10.834Z,1.07
2023-03-04T04:18:42.714Z,1.15
2023-03-04T04:19:48.666Z,1.10
2023-03-04T04:20:45.285Z,1.03
2023-03-04T04:21:17.307Z,0.92
2023-03-04T04:21:51.128Z,1.00
2023-03-04T04:22:26.893Z,1.03
2023-03-04T04:23:02.427Z,1.03
2023-03-04T04:23:41.809Z,1.02
2023-03-04T04:24:38.526Z,1.02
2023-03-04T04:25:10.891Z,1.03
2023-03-04T04:25:42.692Z,0.96
2023-03-04T04:26:14.333Z,0.92
2023-03-04T04:26:46.347Z,0.94
2023-03-04T04:27:18.121Z,0.90
2023-03-04T04:30:11.571Z,0.80
2023-03-04T04:30:46.461Z,0.86
2023-03-04T04:31:17.672Z,0.94
2023-03-04T04:35:41.193Z,0.80
2023-03-04T04:36:17.142Z,0.79
2023-03-04T04:36:51.576Z,0.76
2023-03-04T04:37:26.784Z,0.77
2023-03-04T04:37:59.945Z,0.72
2023-03-04T04:38:34.771Z,0.76
2023-03-04T04:39:09.927Z,0.74
2023-03-04T04:39:44.774Z,0.72
2023-03-04T04:40:17.858Z,0.71
2023-03-04T04:40:52.795Z,0.72
2023-03-04T04:41:25.489Z,0.74
2023-03-04T04:42:00.802Z,0.77
2023-03-04T04:42:35.463Z,0.77
2023-03-04T04:43:10.885Z,0.72
2023-03-04T04:43:44.512Z,0.85
2023-03-04T04:44:19.951Z,0.83
2023-03-04T04:44:57.194Z,0.91
2023-03-04T04:45:31.471Z,1.00
2023-03-04T04:46:04.481Z,0.97
2023-03-04T04:46:40.781Z,0.86
2023-03-04T04:47:15.825Z,0.82
2023-03-04T04:47:53.456Z,0.78
2023-03-04T04:48:50.379Z,0.74
2023-03-04T04:49:47.195Z,0.74
2023-03-04T04:50:56.708Z,0.80
2023-03-04T04:51:32.713Z,0.81
2023-03-04T04:52:07.794Z,0.92
2023-03-04T04:52:42.868Z,0.96
2023-03-04T04:53:17.755Z,0.90
2023-03-04T04:53:52.826Z,0.71
2023-03-04T04:54:25.825Z,0.59
2023-03-04T04:54:58.902Z,0.63
2023-03-04T04:55:34.955Z,0.70
2023-03-04T04:56:17.705Z,0.60
2023-03-04T04:56:52.805Z,0.61
2023-03-04T04:57:58.810Z,0.65
2023-03-04T04:58:31.758Z,0.59
2023-03-04T04:59:39.721Z,0.66
2023-03-04T05:00:47.810Z,0.60
2023-03-04T05:01:19.805Z,0.60
2023-03-04T05:02:25.352Z,0.58
2023-03-04T05:03:23.568Z,0.61
2023-03-04T05:04:30.812Z,0.63
2023-03-04T05:05:07.433Z,0.63
2023-03-04T05:05:39.798Z,0.60
2023-03-04T05:06:13.486Z,0.59
2023-03-04T05:06:46.888Z,0.65
2023-03-04T05:07:54.866Z,0.78
2023-03-04T05:08:26.795Z,0.72
2023-03-04T05:08:58.981Z,0.68
2023-03-04T05:09:33.898Z,0.69
2023-03-04T05:10:09.910Z,0.73
2023-03-04T05:10:44.776Z,0.75
2023-03-04T05:11:19.624Z,0.67
2023-03-04T05:11:54.785Z,0.63
2023-03-04T05:12:26.674Z,0.64
2023-03-04T05:12:58.340Z,0.72
2023-03-04T05:13:33.517Z,0.76
2023-03-04T05:14:05.440Z,0.68
2023-03-04T05:14:37.331Z,0.68
2023-03-04T05:15:41.524Z,0.83
2023-03-04T05:16:14.645Z,0.78
2023-03-04T05:16:49.835Z,0.73
2023-03-04T05:17:24.779Z,0.62
2023-03-04T05:18:32.472Z,0.63
2023-03-04T05:19:08.634Z,0.63
2023-03-04T05:19:43.767Z,0.70
2023-03-04T05:20:18.858Z,0.64
2023-03-04T05:20:52.610Z,0.56
2023-03-04T05:21:56.820Z,0.42
2023-03-04T05:22:31.830Z,0.58
2023-03-04T05:23:03.952Z,0.61
2023-03-04T05:23:39.403Z,0.63
2023-03-04T05:24:11.242Z,0.60
2023-03-04T05:24:43.009Z,0.45
2023-03-04T05:25:17.957Z,0.39
2023-03-04T05:25:53.074Z,0.40
2023-03-04T05:26:24.859Z,0.47
2023-03-04T05:26:56.669Z,0.46
2023-03-04T05:27:31.812Z,0.47
2023-03-04T05:28:04.437Z,0.52
2023-03-04T05:29:08.219Z,0.63
2023-03-04T05:29:40.007Z,0.50
2023-03-04T05:30:45.960Z,0.51
2023-03-04T05:31:18.178Z,0.50
2023-03-04T05:31:50.792Z,0.51
2023-03-04T05:32:22.655Z,0.38
2023-03-04T05:33:27.349Z,0.40
2023-03-04T05:34:24.437Z,0.42
2023-03-04T05:35:29.109Z,0.37
2023-03-04T05:36:05.637Z,0.36
2023-03-04T05:36:37.400Z,0.33
2023-03-04T05:37:12.770Z,0.37
2023-03-04T05:37:44.845Z,0.41
2023-03-04T05:38:19.706Z,0.43
2023-03-04T05:38:51.675Z,0.39
2023-03-04T05:39:24.079Z,0.39
2023-03-04T05:39:55.856Z,0.38
2023-03-04T05:40:27.683Z,0.34
2023-03-04T05:41:32.421Z,0.37
2023-03-04T05:42:04.295Z,0.36
2023-03-04T05:43:09.364Z,0.27
2023-03-04T05:43:43.034Z,0.23
2023-03-04T05:44:14.847Z,0.30
2023-03-04T05:44:46.765Z,0.33
2023-03-04T05:45:18.693Z,0.33
2023-03-04T05:45:50.524Z,0.35
2023-03-04T05:46:25.608Z,0.33
2023-03-04T05:46:57.565Z,0.37
2023-03-04T05:48:03.329Z,0.42
2023-03-04T05:49:00.474Z,0.29
2023-03-04T05:49:32.245Z,0.38
2023-03-04T05:50:04.165Z,0.41
2023-03-04T05:51:08.926Z,0.31
2023-03-04T05:51:40.748Z,0.27
2023-03-04T05:52:12.619Z,0.31
2023-03-04T05:52:44.743Z,0.29
2023-03-04T05:53:16.549Z,0.38
2023-03-04T05:53:49.010Z,0.30
2023-03-04T05:54:21.743Z,0.35
2023-03-04T05:54:53.524Z,0.39
2023-03-04T05:55:27.819Z,0.40
2023-03-04T05:56:00.184Z,0.37
2023-03-04T05:56:33.578Z,0.31
2023-03-04T05:57:05.692Z,0.36
2023-03-04T05:57:38.097Z,0.37
2023-03-04T05:58:09.853Z,0.34
2023-03-04T05:58:42.812Z,0.35
2023-03-04T05:59:20.472Z,0.41
2023-03-04T05:59:52.274Z,0.44
2023-03-04T06:00:24.418Z,0.37
2023-03-04T06:01:00.586Z,0.41
2023-03-04T06:01:32.594Z,0.42
2023-03-04T06:02:04.426Z,0.39
2023-03-04T06:02:37.068Z,0.35
2023-03-04T06:03:15.192Z,0.43
2023-03-04T06:03:49.414Z,0.34
2023-03-04T06:04:21.292Z,0.30
2023-03-04T06:04:53.181Z,0.32
2023-03-04T06:05:24.976Z,0.38
2023-03-04T06:05:56.987Z,0.35
2023-03-04T06:06:29.125Z,0.30
2023-03-04T06:07:00.929Z,0.33
2023-03-04T06:07:33.395Z,0.32
2023-03-04T06:08:05.183Z,0.35
2023-03-04T06:08:37.321Z,0.38
2023-03-04T06:10:05.277Z,0.38
2023-03-04T06:10:38.196Z,0.35
2023-03-04T06:11:09.986Z,0.41
2023-03-04T06:11:42.179Z,0.42
2023-03-04T06:12:14.339Z,0.45
2023-03-04T06:12:46.499Z,0.48
2023-03-04T06:13:18.325Z,0.49
2023-03-04T06:13:50.260Z,0.52
2023-03-04T06:14:22.142Z,0.57
2023-03-04T06:14:53.959Z,0.53
2023-03-04T06:15:25.799Z,0.43
2023-03-04T06:15:59.644Z,0.37
2023-03-04T06:16:32.166Z,0.37
2023-03-04T06:17:39.463Z,0.52
2023-03-04T06:18:12.493Z,0.48
2023-03-04T06:18:44.286Z,0.45
2023-03-04T06:19:16.138Z,0.41
2023-03-04T06:19:47.954Z,0.31
2023-03-04T06:20:19.856Z,0.35
2023-03-04T06:20:51.650Z,0.36
2023-03-04T06:21:41.789Z,0.39
2023-03-04T06:22:13.593Z,0.37
2023-03-04T06:22:45.477Z,0.46
2023-03-04T06:23:17.641Z,0.32
2023-03-04T06:23:49.518Z,0.25
2023-03-04T06:24:21.606Z,0.16
2023-03-04T06:25:26.223Z,0.22
2023-03-04T06:26:00.958Z,0.39
2023-03-04T06:26:32.816Z,0.44
2023-03-04T06:27:04.901Z,0.46
2023-03-04T06:27:37.125Z,0.39
2023-03-04T06:28:08.943Z,0.32
2023-03-04T06:28:40.790Z,0.36
2023-03-04T06:29:12.683Z,0.32
2023-03-04T06:29:44.511Z,0.33
2023-03-04T06:30:16.434Z,0.28
2023-03-04T06:30:48.284Z,0.34
2023-03-04T06:31:20.091Z,0.41
2023-03-04T06:31:51.992Z,0.49
2023-03-04T06:32:24.407Z,0.45
2023-03-04T06:33:28.591Z,0.38
2023-03-04T06:34:25.413Z,0.36
2023-03-04T06:34:57.215Z,0.36
2023-03-04T06:35:29.022Z,0.36
2023-03-04T06:36:00.869Z,0.37
2023-03-04T06:36:32.761Z,0.41
2023-03-04T06:37:04.733Z,0.58
2023-03-04T06:37:36.627Z,0.49
2023-03-04T06:38:42.783Z,0.27
2023-03-04T06:39:17.950Z,0.32
2023-03-04T06:39:50.084Z,0.35
2023-03-04T06:40:21.910Z,0.41
2023-03-04T06:41:26.286Z,0.47
2023-03-04T06:41:58.126Z,0.42
2023-03-04T06:42:30.069Z,0.44
2023-03-04T06:43:01.931Z,0.44
2023-03-04T06:43:33.783Z,0.49
2023-03-04T06:44:05.445Z,0.53
2023-03-04T06:44:37.215Z,0.51
2023-03-04T06:45:09.956Z,0.50
2023-03-04T06:46:14.362Z,0.40
2023-03-04T06:46:46.241Z,0.45
2023-03-04T06:47:19.047Z,0.57
2023-03-04T06:47:50.847Z,0.59
2023-03-04T06:48:22.642Z,0.61
2023-03-04T06:48:54.417Z,0.62
2023-03-04T06:49:58.864Z,0.56
2023-03-04T06:50:31.857Z,0.59
2023-03-04T06:51:28.680Z,0.68
2023-03-04T06:52:01.037Z,0.62
2023-03-04T06:52:33.037Z,0.61
2023-03-04T06:53:04.851Z,0.68
2023-03-04T06:53:37.315Z,0.68
2023-03-04T06:54:42.867Z,0.87
2023-03-04T06:55:17.784Z,1.07
2023-03-04T06:55:49.838Z,1.05
2023-03-04T06:56:21.640Z,1.11
2023-03-04T06:56:53.479Z,1.10
2023-03-04T06:57:25.341Z,0.94
2023-03-04T06:58:29.566Z,1.07
2023-03-04T06:59:15.482Z,1.23
2023-03-04T06:59:48.782Z,1.23
2023-03-04T07:00:20.905Z,1.24
2023-03-04T07:00:55.788Z,1.38
2023-03-04T07:01:29.906Z,1.31
2023-03-04T07:02:04.784Z,1.46
2023-03-04T07:02:36.526Z,1.55
2023-03-04T07:03:09.387Z,1.61
2023-03-04T07:03:41.528Z,1.53
2023-03-04T07:04:15.359Z,1.49
2023-03-04T07:05:27.301Z,1.55
2023-03-04T07:06:33.093Z,1.39
2023-03-04T07:07:36.925Z,1.30
2023-03-04T07:08:12.117Z,1.41
2023-03-04T07:09:26.851Z,1.55
2023-03-04T07:09:59.837Z,1.67
2023-03-04T07:10:45.463Z,1.69
2023-03-04T07:11:20.153Z,1.54
2023-03-04T07:12:24.460Z,1.55
2023-03-04T07:12:57.883Z,1.60
2023-03-04T07:14:02.191Z,1.70
2023-03-04T07:14:35.932Z,1.68
2023-03-04T07:15:11.100Z,1.73
2023-03-04T07:15:44.792Z,1.64
2023-03-04T07:16:41.497Z,1.74
2023-03-04T07:18:11.117Z,1.83
2023-03-04T07:19:16.895Z,2.01
2023-03-04T07:19:52.093Z,2.07
2023-03-04T07:20:25.778Z,1.93
2023-03-04T07:20:58.923Z,1.84
2023-03-04T07:21:33.969Z,1.64
2023-03-04T07:22:08.921Z,1.72
2023-03-04T07:22:40.797Z,1.77
2023-03-04T07:23:15.370Z,1.92
2023-03-04T07:23:48.480Z,1.91
2023-03-04T07:24:23.764Z,1.85
2023-03-04T07:25:31.904Z,1.84
2023-03-04T07:26:07.569Z,1.62
2023-03-04T07:27:14.747Z,1.72
2023-03-04T07:28:20.943Z,1.74
2023-03-04T07:28:58.472Z,1.85
2023-03-04T07:29:33.813Z,1.55
2023-03-04T07:30:09.616Z,1.43
2023-03-04T07:30:45.141Z,1.49
2023-03-04T07:31:24.288Z,1.75
2023-03-04T07:31:59.906Z,1.77
2023-03-04T07:32:59.214Z,1.83
2023-03-04T07:33:32.420Z,1.58
2023-03-04T07:34:12.573Z,1.53
2023-03-04T07:34:47.788Z,1.41
2023-03-04T07:35:21.039Z,1.66
2023-03-04T07:36:29.237Z,1.60
2023-03-04T07:37:36.847Z,1.67
2023-03-04T07:38:11.830Z,1.86
2023-03-04T07:38:46.247Z,1.84
2023-03-04T07:39:19.904Z,1.72
2023-03-04T07:40:26.220Z,2.02
2023-03-04T07:40:59.151Z,2.10
2023-03-04T07:41:38.285Z,2.22
2023-03-04T07:42:13.990Z,2.25
2023-03-04T07:42:55.000Z,2.16
2023-03-04T07:43:29.818Z,2.27
2023-03-04T07:44:02.472Z,2.34
2023-03-04T07:45:08.764Z,2.20
2023-03-04T07:45:41.937Z,2.32
2023-03-04T07:46:47.801Z,2.58
2023-03-04T07:47:21.051Z,2.54
2023-03-04T07:47:53.147Z,2.52
2023-03-04T07:48:26.796Z,2.57
2023-03-04T07:49:01.845Z,2.41
2023-03-04T07:49:37.158Z,2.43
2023-03-04T07:50:10.506Z,2.54
2023-03-04T07:51:20.126Z,2.64
2023-03-04T07:51:52.936Z,2.21
2023-03-04T07:52:27.777Z,2.27
2023-03-04T07:53:00.945Z,2.52
2023-03-04T07:53:37.289Z,2.76
2023-03-04T07:54:10.572Z,2.71
2023-03-04T07:54:45.903Z,2.89
2023-03-04T07:55:18.588Z,2.97
2023-03-04T07:55:50.493Z,3.28
2023-03-04T07:56:26.080Z,3.31
2023-03-04T07:56:57.882Z,3.44
2023-03-04T07:58:03.344Z,3.52
2023-03-04T07:59:08.066Z,3.23
2023-03-04T07:59:39.950Z,3.41
2023-03-04T08:00:15.393Z,3.69
2023-03-04T08:00:47.291Z,3.89
2023-03-04T08:01:33.212Z,3.73
2023-03-04T08:02:05.154Z,3.69
2023-03-04T08:02:37.011Z,3.68
2023-03-04T08:03:08.787Z,3.72
2023-03-04T08:03:41.883Z,3.58
2023-03-04T08:04:14.324Z,3.56
2023-03-04T08:04:46.131Z,3.17
2023-03-04T08:05:17.908Z,2.90
2023-03-04T08:05:50.299Z,3.16
2023-03-04T08:06:23.441Z,3.45
2023-03-04T08:06:55.271Z,3.41
2023-03-04T08:07:27.101Z,3.19
2023-03-04T08:07:58.855Z,3.28
2023-03-04T08:08:30.617Z,3.46
2023-03-04T08:09:06.496Z,3.46
2023-03-04T08:09:38.325Z,3.21
2023-03-04T08:10:10.885Z,3.50
2023-03-04T08:10:43.674Z,3.82
2023-03-04T08:11:21.550Z,3.90
2023-03-04T08:11:53.387Z,3.97
2023-03-04T08:12:25.798Z,4.03
2023-03-04T08:13:30.411Z,4.31
2023-03-04T08:14:02.622Z,4.19
2023-03-04T08:14:34.437Z,4.10
2023-03-04T08:15:06.937Z,3.91
2023-03-04T08:15:42.910Z,3.78